sensor_id;sensor_type;location;lat;lon;timestamp;P1;durP1;ratioP1;P2;durP2;ratioP2
3971;SDS011;2000;47.572;14.202;2024-01-30T00:00:50;4.67;;;1.00;;
3971;SDS011;2000;47.572;14.202;2024-01-30T00:03:18;2.03;;;0.70;;
3971;SDS011;2000;47.572;14.202;2024-01-30T00:05:45;1.33;;;0.80;;
3971;SDS011;2000;47.572;14.202;2024-01-30T00:08:12;1.83;;;0.97;;
3971;SDS011;2000;47.572;14.202;2024-01-30T00:10:39;2.97;;;1.03;;
3971;SDS011;2000;47.572;14.202;2024-01-30T00:13:07;1.03;;;0.93;;
3971;SDS011;2000;47.572;14.202;2024-01-30T00:15:34;4.33;;;1.40;;
3971;SDS011;2000;47.572;14.202;2024-01-30T00:18:01;2.10;;;0.80;;
3971;SDS011;2000;47.572;14.202;2024-01-30T00:20:28;2.87;;;0.70;;
3971;SDS011;2000;47.572;14.202;2024-01-30T00:22:55;3.60;;;1.03;;
3971;SDS011;2000;47.572;14.202;2024-01-30T00:25:22;1.13;;;0.80;;
3971;SDS011;2000;47.572;14.202;2024-01-30T00:27:49;3.90;;;1.10;;
3971;SDS011;2000;47.572;14.202;2024-01-30T00:30:16;1.03;;;1.00;;
3971;SDS011;2000;47.572;14.202;2024-01-30T00:32:43;2.00;;;1.20;;
3971;SDS011;2000;47.572;14.202;2024-01-30T00:35:10;1.33;;;0.87;;
3971;SDS011;2000;47.572;14.202;2024-01-30T00:37:37;2.20;;;1.20;;
3971;SDS011;2000;47.572;14.202;2024-01-30T00:40:04;1.90;;;1.33;;
3971;SDS011;2000;47.572;14.202;2024-01-30T00:42:33;3.63;;;1.07;;
3971;SDS011;2000;47.572;14.202;2024-01-30T00:45:00;3.27;;;1.40;;
3971;SDS011;2000;47.572;14.202;2024-01-30T00:47:27;2.13;;;1.00;;
3971;SDS011;2000;47.572;14.202;2024-01-30T00:49:55;4.17;;;1.50;;
3971;SDS011;2000;47.572;14.202;2024-01-30T00:52:22;4.40;;;1.93;;
3971;SDS011;2000;47.572;14.202;2024-01-30T00:54:49;1.23;;;0.60;;
3971;SDS011;2000;47.572;14.202;2024-01-30T00:57:17;1.70;;;0.90;;
3971;SDS011;2000;47.572;14.202;2024-01-30T00:59:44;1.23;;;0.93;;
3971;SDS011;2000;47.572;14.202;2024-01-30T01:02:11;2.33;;;1.73;;
3971;SDS011;2000;47.572;14.202;2024-01-30T01:04:38;2.50;;;1.47;;
3971;SDS011;2000;47.572;14.202;2024-01-30T01:07:05;2.20;;;1.50;;
3971;SDS011;2000;47.572;14.202;2024-01-30T01:09:32;6.90;;;1.60;;
3971;SDS011;2000;47.572;14.202;2024-01-30T01:11:59;2.33;;;1.00;;
3971;SDS011;2000;47.572;14.202;2024-01-30T01:14:26;1.33;;;0.87;;
3971;SDS011;2000;47.572;14.202;2024-01-30T01:16:53;4.10;;;1.53;;
3971;SDS011;2000;47.572;14.202;2024-01-30T01:19:20;3.43;;;1.57;;
3971;SDS011;2000;47.572;14.202;2024-01-30T01:21:47;3.43;;;1.67;;
3971;SDS011;2000;47.572;14.202;2024-01-30T01:24:15;1.67;;;1.13;;
3971;SDS011;2000;47.572;14.202;2024-01-30T01:26:41;6.40;;;1.23;;
3971;SDS011;2000;47.572;14.202;2024-01-30T01:29:08;1.50;;;1.40;;
3971;SDS011;2000;47.572;14.202;2024-01-30T01:31:38;1.70;;;1.37;;
3971;SDS011;2000;47.572;14.202;2024-01-30T01:34:10;7.07;;;1.77;;
3971;SDS011;2000;47.572;14.202;2024-01-30T01:36:38;1.77;;;1.20;;
3971;SDS011;2000;47.572;14.202;2024-01-30T01:39:05;1.57;;;0.93;;
3971;SDS011;2000;47.572;14.202;2024-01-30T01:41:32;0.90;;;0.90;;
3971;SDS011;2000;47.572;14.202;2024-01-30T01:44:00;3.07;;;1.17;;
3971;SDS011;2000;47.572;14.202;2024-01-30T01:46:27;1.10;;;1.10;;
3971;SDS011;2000;47.572;14.202;2024-01-30T01:48:57;1.33;;;0.93;;
3971;SDS011;2000;47.572;14.202;2024-01-30T01:51:24;1.53;;;0.93;;
3971;SDS011;2000;47.572;14.202;2024-01-30T01:53:54;2.90;;;1.20;;
3971;SDS011;2000;47.572;14.202;2024-01-30T01:56:22;3.87;;;2.00;;
3971;SDS011;2000;47.572;14.202;2024-01-30T01:58:50;2.10;;;1.10;;
3971;SDS011;2000;47.572;14.202;2024-01-30T02:01:18;2.00;;;0.93;;
3971;SDS011;2000;47.572;14.202;2024-01-30T02:03:47;2.23;;;1.03;;
3971;SDS011;2000;47.572;14.202;2024-01-30T02:06:14;1.20;;;0.70;;
3971;SDS011;2000;47.572;14.202;2024-01-30T02:08:41;6.77;;;1.10;;
3971;SDS011;2000;47.572;14.202;2024-01-30T02:11:08;1.13;;;0.50;;
3971;SDS011;2000;47.572;14.202;2024-01-30T02:13:38;1.33;;;0.90;;
3971;SDS011;2000;47.572;14.202;2024-01-30T02:16:05;3.47;;;1.27;;
3971;SDS011;2000;47.572;14.202;2024-01-30T02:18:33;2.60;;;1.70;;
3971;SDS011;2000;47.572;14.202;2024-01-30T02:23:30;1.70;;;1.20;;
3971;SDS011;2000;47.572;14.202;2024-01-30T02:25:59;2.30;;;1.03;;
3971;SDS011;2000;47.572;14.202;2024-01-30T02:28:27;4.53;;;1.30;;
3971;SDS011;2000;47.572;14.202;2024-01-30T02:30:54;2.60;;;1.23;;
3971;SDS011;2000;47.572;14.202;2024-01-30T02:33:21;2.33;;;1.10;;
3971;SDS011;2000;47.572;14.202;2024-01-30T02:35:48;2.90;;;1.50;;
3971;SDS011;2000;47.572;14.202;2024-01-30T02:38:15;2.60;;;0.90;;
3971;SDS011;2000;47.572;14.202;2024-01-30T02:40:43;3.80;;;1.30;;
3971;SDS011;2000;47.572;14.202;2024-01-30T02:43:10;1.20;;;0.80;;
3971;SDS011;2000;47.572;14.202;2024-01-30T02:45:37;3.17;;;1.33;;
3971;SDS011;2000;47.572;14.202;2024-01-30T02:48:04;1.77;;;1.13;;
3971;SDS011;2000;47.572;14.202;2024-01-30T02:50:31;3.67;;;1.40;;
3971;SDS011;2000;47.572;14.202;2024-01-30T02:52:58;1.50;;;1.13;;
3971;SDS011;2000;47.572;14.202;2024-01-30T02:55:25;1.70;;;1.30;;
3971;SDS011;2000;47.572;14.202;2024-01-30T02:57:52;4.03;;;1.23;;
3971;SDS011;2000;47.572;14.202;2024-01-30T03:00:19;2.47;;;1.27;;
3971;SDS011;2000;47.572;14.202;2024-01-30T03:02:47;2.10;;;1.07;;
3971;SDS011;2000;47.572;14.202;2024-01-30T03:05:14;1.70;;;1.20;;
3971;SDS011;2000;47.572;14.202;2024-01-30T03:07:41;1.80;;;1.10;;
3971;SDS011;2000;47.572;14.202;2024-01-30T03:10:08;6.93;;;1.63;;
3971;SDS011;2000;47.572;14.202;2024-01-30T03:12:35;0.83;;;0.77;;
3971;SDS011;2000;47.572;14.202;2024-01-30T03:15:02;2.60;;;1.47;;
3971;SDS011;2000;47.572;14.202;2024-01-30T03:17:29;2.37;;;1.53;;
3971;SDS011;2000;47.572;14.202;2024-01-30T03:19:56;1.93;;;0.70;;
3971;SDS011;2000;47.572;14.202;2024-01-30T03:22:23;0.63;;;0.60;;
3971;SDS011;2000;47.572;14.202;2024-01-30T03:24:50;0.60;;;0.60;;
3971;SDS011;2000;47.572;14.202;2024-01-30T03:27:17;1.67;;;0.80;;
3971;SDS011;2000;47.572;14.202;2024-01-30T03:29:44;10.60;;;0.97;;
3971;SDS011;2000;47.572;14.202;2024-01-30T03:32:11;2.30;;;1.00;;
3971;SDS011;2000;47.572;14.202;2024-01-30T03:34:38;2.67;;;1.20;;
3971;SDS011;2000;47.572;14.202;2024-01-30T03:37:06;4.67;;;0.80;;
3971;SDS011;2000;47.572;14.202;2024-01-30T03:39:33;2.63;;;0.93;;
3971;SDS011;2000;47.572;14.202;2024-01-30T03:42:00;1.20;;;1.10;;
3971;SDS011;2000;47.572;14.202;2024-01-30T03:44:27;2.23;;;1.10;;
3971;SDS011;2000;47.572;14.202;2024-01-30T03:46:54;2.40;;;1.87;;
3971;SDS011;2000;47.572;14.202;2024-01-30T03:49:21;5.57;;;2.73;;
3971;SDS011;2000;47.572;14.202;2024-01-30T03:51:48;4.63;;;1.00;;
3971;SDS011;2000;47.572;14.202;2024-01-30T03:54:15;2.10;;;1.30;;
3971;SDS011;2000;47.572;14.202;2024-01-30T03:56:42;2.10;;;1.23;;
3971;SDS011;2000;47.572;14.202;2024-01-30T03:59:09;2.70;;;1.77;;
3971;SDS011;2000;47.572;14.202;2024-01-30T04:01:36;5.00;;;2.00;;
3971;SDS011;2000;47.572;14.202;2024-01-30T04:04:03;1.47;;;0.87;;
3971;SDS011;2000;47.572;14.202;2024-01-30T04:06:30;1.80;;;1.07;;
3971;SDS011;2000;47.572;14.202;2024-01-30T04:08:57;1.30;;;0.87;;
3971;SDS011;2000;47.572;14.202;2024-01-30T04:11:24;3.67;;;1.33;;
3971;SDS011;2000;47.572;14.202;2024-01-30T04:13:51;1.47;;;1.13;;
3971;SDS011;2000;47.572;14.202;2024-01-30T04:16:19;4.43;;;1.33;;
3971;SDS011;2000;47.572;14.202;2024-01-30T04:18:48;5.50;;;2.47;;
3971;SDS011;2000;47.572;14.202;2024-01-30T04:21:15;11.40;;;1.80;;
3971;SDS011;2000;47.572;14.202;2024-01-30T04:23:42;4.23;;;1.83;;
3971;SDS011;2000;47.572;14.202;2024-01-30T04:26:09;4.20;;;2.13;;
3971;SDS011;2000;47.572;14.202;2024-01-30T04:28:36;5.37;;;1.97;;
3971;SDS011;2000;47.572;14.202;2024-01-30T04:31:03;2.00;;;1.20;;
3971;SDS011;2000;47.572;14.202;2024-01-30T04:33:30;3.13;;;1.30;;
3971;SDS011;2000;47.572;14.202;2024-01-30T04:35:57;5.20;;;1.50;;
3971;SDS011;2000;47.572;14.202;2024-01-30T04:38:24;5.30;;;1.33;;
3971;SDS011;2000;47.572;14.202;2024-01-30T04:40:51;1.67;;;0.90;;
3971;SDS011;2000;47.572;14.202;2024-01-30T04:43:18;1.37;;;1.00;;
3971;SDS011;2000;47.572;14.202;2024-01-30T04:45:46;1.57;;;1.20;;
3971;SDS011;2000;47.572;14.202;2024-01-30T04:48:13;2.20;;;1.20;;
3971;SDS011;2000;47.572;14.202;2024-01-30T04:50:40;2.00;;;1.17;;
3971;SDS011;2000;47.572;14.202;2024-01-30T04:53:07;1.80;;;1.47;;
3971;SDS011;2000;47.572;14.202;2024-01-30T04:55:35;2.97;;;1.90;;
3971;SDS011;2000;47.572;14.202;2024-01-30T04:58:02;3.27;;;1.90;;
3971;SDS011;2000;47.572;14.202;2024-01-30T05:00:29;4.03;;;1.87;;
3971;SDS011;2000;47.572;14.202;2024-01-30T05:02:56;2.50;;;1.73;;
3971;SDS011;2000;47.572;14.202;2024-01-30T05:05:23;1.80;;;1.27;;
3971;SDS011;2000;47.572;14.202;2024-01-30T05:07:50;5.70;;;1.60;;
3971;SDS011;2000;47.572;14.202;2024-01-30T05:10:17;4.70;;;1.60;;
3971;SDS011;2000;47.572;14.202;2024-01-30T05:12:44;2.10;;;1.90;;
3971;SDS011;2000;47.572;14.202;2024-01-30T05:15:12;3.77;;;2.27;;
3971;SDS011;2000;47.572;14.202;2024-01-30T05:17:38;7.30;;;3.87;;
3971;SDS011;2000;47.572;14.202;2024-01-30T05:20:06;3.90;;;2.47;;
3971;SDS011;2000;47.572;14.202;2024-01-30T05:22:34;4.63;;;2.90;;
3971;SDS011;2000;47.572;14.202;2024-01-30T05:25:01;3.37;;;2.67;;
3971;SDS011;2000;47.572;14.202;2024-01-30T05:27:28;4.67;;;2.83;;
3971;SDS011;2000;47.572;14.202;2024-01-30T05:29:55;3.87;;;2.10;;
3971;SDS011;2000;47.572;14.202;2024-01-30T05:32:22;2.70;;;1.70;;
3971;SDS011;2000;47.572;14.202;2024-01-30T05:34:49;4.53;;;2.00;;
3971;SDS011;2000;47.572;14.202;2024-01-30T05:37:17;2.13;;;1.97;;
3971;SDS011;2000;47.572;14.202;2024-01-30T05:39:44;2.40;;;1.93;;
3971;SDS011;2000;47.572;14.202;2024-01-30T05:42:11;2.30;;;1.67;;
3971;SDS011;2000;47.572;14.202;2024-01-30T05:44:38;2.07;;;1.50;;
3971;SDS011;2000;47.572;14.202;2024-01-30T05:47:05;2.33;;;2.00;;
3971;SDS011;2000;47.572;14.202;2024-01-30T05:49:32;3.17;;;1.50;;
3971;SDS011;2000;47.572;14.202;2024-01-30T05:51:59;1.60;;;1.40;;
3971;SDS011;2000;47.572;14.202;2024-01-30T05:54:27;12.40;;;1.27;;
3971;SDS011;2000;47.572;14.202;2024-01-30T05:56:54;9.53;;;1.10;;
3971;SDS011;2000;47.572;14.202;2024-01-30T05:59:21;13.63;;;1.53;;
3971;SDS011;2000;47.572;14.202;2024-01-30T06:01:48;15.27;;;5.13;;
3971;SDS011;2000;47.572;14.202;2024-01-30T06:04:16;9.53;;;3.73;;
3971;SDS011;2000;47.572;14.202;2024-01-30T06:06:43;8.83;;;4.33;;
3971;SDS011;2000;47.572;14.202;2024-01-30T06:09:10;9.87;;;4.20;;
3971;SDS011;2000;47.572;14.202;2024-01-30T06:11:39;7.77;;;4.13;;
3971;SDS011;2000;47.572;14.202;2024-01-30T06:14:06;13.40;;;2.67;;
3971;SDS011;2000;47.572;14.202;2024-01-30T06:16:33;25.47;;;3.83;;
3971;SDS011;2000;47.572;14.202;2024-01-30T06:19:00;3.57;;;1.67;;
3971;SDS011;2000;47.572;14.202;2024-01-30T06:21:27;10.50;;;2.10;;
3971;SDS011;2000;47.572;14.202;2024-01-30T06:23:54;3.87;;;2.33;;
3971;SDS011;2000;47.572;14.202;2024-01-30T06:26:21;22.03;;;2.23;;
3971;SDS011;2000;47.572;14.202;2024-01-30T06:28:48;8.53;;;1.67;;
3971;SDS011;2000;47.572;14.202;2024-01-30T06:31:15;7.03;;;1.70;;
3971;SDS011;2000;47.572;14.202;2024-01-30T06:33:42;3.50;;;2.20;;
3971;SDS011;2000;47.572;14.202;2024-01-30T06:36:09;20.57;;;2.33;;
3971;SDS011;2000;47.572;14.202;2024-01-30T06:38:36;8.73;;;3.33;;
3971;SDS011;2000;47.572;14.202;2024-01-30T06:41:03;16.43;;;3.30;;
3971;SDS011;2000;47.572;14.202;2024-01-30T06:43:30;37.50;;;3.27;;
3971;SDS011;2000;47.572;14.202;2024-01-30T06:45:57;19.47;;;3.33;;
3971;SDS011;2000;47.572;14.202;2024-01-30T06:48:25;21.63;;;2.40;;
3971;SDS011;2000;47.572;14.202;2024-01-30T06:50:53;3.27;;;1.77;;
3971;SDS011;2000;47.572;14.202;2024-01-30T06:53:20;7.67;;;2.20;;
3971;SDS011;2000;47.572;14.202;2024-01-30T06:55:47;10.60;;;2.83;;
3971;SDS011;2000;47.572;14.202;2024-01-30T06:58:14;4.57;;;2.00;;
3971;SDS011;2000;47.572;14.202;2024-01-30T07:00:41;3.33;;;2.57;;
3971;SDS011;2000;47.572;14.202;2024-01-30T07:03:09;13.83;;;1.50;;
3971;SDS011;2000;47.572;14.202;2024-01-30T07:05:36;4.50;;;1.03;;
3971;SDS011;2000;47.572;14.202;2024-01-30T07:08:03;11.30;;;1.60;;
3971;SDS011;2000;47.572;14.202;2024-01-30T07:10:30;5.97;;;2.00;;
3971;SDS011;2000;47.572;14.202;2024-01-30T07:12:58;2.23;;;1.50;;
3971;SDS011;2000;47.572;14.202;2024-01-30T07:15:25;4.00;;;1.63;;
3971;SDS011;2000;47.572;14.202;2024-01-30T07:17:52;3.03;;;1.70;;
3971;SDS011;2000;47.572;14.202;2024-01-30T07:20:19;11.00;;;1.83;;
3971;SDS011;2000;47.572;14.202;2024-01-30T07:22:47;13.13;;;2.70;;
3971;SDS011;2000;47.572;14.202;2024-01-30T07:25:14;9.83;;;2.53;;
3971;SDS011;2000;47.572;14.202;2024-01-30T07:27:42;12.20;;;2.20;;
3971;SDS011;2000;47.572;14.202;2024-01-30T07:30:09;10.70;;;2.90;;
3971;SDS011;2000;47.572;14.202;2024-01-30T07:32:36;25.43;;;3.63;;
3971;SDS011;2000;47.572;14.202;2024-01-30T07:35:03;8.63;;;2.77;;
3971;SDS011;2000;47.572;14.202;2024-01-30T07:37:34;9.87;;;2.87;;
3971;SDS011;2000;47.572;14.202;2024-01-30T07:40:02;12.03;;;2.70;;
3971;SDS011;2000;47.572;14.202;2024-01-30T07:42:31;3.10;;;2.23;;
3971;SDS011;2000;47.572;14.202;2024-01-30T07:44:58;20.50;;;5.10;;
3971;SDS011;2000;47.572;14.202;2024-01-30T07:47:25;13.03;;;3.77;;
3971;SDS011;2000;47.572;14.202;2024-01-30T07:49:52;13.10;;;4.97;;
3971;SDS011;2000;47.572;14.202;2024-01-30T07:52:21;29.03;;;4.20;;
3971;SDS011;2000;47.572;14.202;2024-01-30T07:58:14;6.50;;;2.83;;
3971;SDS011;2000;47.572;14.202;2024-01-30T08:00:41;7.43;;;3.10;;
3971;SDS011;2000;47.572;14.202;2024-01-30T08:03:08;13.60;;;3.27;;
3971;SDS011;2000;47.572;14.202;2024-01-30T08:05:36;9.50;;;3.57;;
3971;SDS011;2000;47.572;14.202;2024-01-30T08:08:03;14.83;;;2.97;;
3971;SDS011;2000;47.572;14.202;2024-01-30T08:10:30;10.23;;;2.57;;
3971;SDS011;2000;47.572;14.202;2024-01-30T08:12:57;10.13;;;3.27;;
3971;SDS011;2000;47.572;14.202;2024-01-30T08:15:25;4.80;;;2.90;;
3971;SDS011;2000;47.572;14.202;2024-01-30T08:17:51;8.90;;;5.70;;
3971;SDS011;2000;47.572;14.202;2024-01-30T08:20:24;12.50;;;4.70;;
3971;SDS011;2000;47.572;14.202;2024-01-30T08:22:52;18.13;;;5.70;;
3971;SDS011;2000;47.572;14.202;2024-01-30T08:25:19;7.80;;;5.20;;
3971;SDS011;2000;47.572;14.202;2024-01-30T08:27:46;7.63;;;3.40;;
3971;SDS011;2000;47.572;14.202;2024-01-30T08:30:13;2.53;;;2.03;;
3971;SDS011;2000;47.572;14.202;2024-01-30T08:32:40;4.93;;;2.77;;
3971;SDS011;2000;47.572;14.202;2024-01-30T08:35:07;6.27;;;2.47;;
3971;SDS011;2000;47.572;14.202;2024-01-30T08:37:35;8.63;;;2.30;;
3971;SDS011;2000;47.572;14.202;2024-01-30T08:40:05;2.70;;;1.90;;
3971;SDS011;2000;47.572;14.202;2024-01-30T08:42:35;9.03;;;2.47;;
3971;SDS011;2000;47.572;14.202;2024-01-30T08:45:02;2.80;;;1.77;;
3971;SDS011;2000;47.572;14.202;2024-01-30T08:47:31;7.17;;;1.60;;
3971;SDS011;2000;47.572;14.202;2024-01-30T08:50:00;5.20;;;2.00;;
3971;SDS011;2000;47.572;14.202;2024-01-30T08:52:27;3.53;;;2.60;;
3971;SDS011;2000;47.572;14.202;2024-01-30T08:54:54;4.23;;;2.33;;
3971;SDS011;2000;47.572;14.202;2024-01-30T08:57:21;3.33;;;1.83;;
3971;SDS011;2000;47.572;14.202;2024-01-30T08:59:48;1.73;;;1.63;;
3971;SDS011;2000;47.572;14.202;2024-01-30T09:02:15;7.03;;;1.60;;
3971;SDS011;2000;47.572;14.202;2024-01-30T09:04:45;9.03;;;2.07;;
3971;SDS011;2000;47.572;14.202;2024-01-30T09:07:12;7.10;;;1.83;;
3971;SDS011;2000;47.572;14.202;2024-01-30T09:09:40;9.10;;;2.60;;
3971;SDS011;2000;47.572;14.202;2024-01-30T09:12:08;3.07;;;1.80;;
3971;SDS011;2000;47.572;14.202;2024-01-30T09:14:39;2.93;;;1.67;;
3971;SDS011;2000;47.572;14.202;2024-01-30T09:17:07;4.97;;;2.20;;
3971;SDS011;2000;47.572;14.202;2024-01-30T09:19:35;3.53;;;1.97;;
3971;SDS011;2000;47.572;14.202;2024-01-30T09:22:02;4.00;;;1.90;;
3971;SDS011;2000;47.572;14.202;2024-01-30T09:24:30;7.33;;;1.43;;
3971;SDS011;2000;47.572;14.202;2024-01-30T09:26:57;8.00;;;1.70;;
3971;SDS011;2000;47.572;14.202;2024-01-30T09:29:25;1.83;;;1.30;;
3971;SDS011;2000;47.572;14.202;2024-01-30T09:31:52;1.23;;;1.07;;
3971;SDS011;2000;47.572;14.202;2024-01-30T09:34:19;7.10;;;1.00;;
3971;SDS011;2000;47.572;14.202;2024-01-30T09:36:46;7.07;;;1.80;;
3971;SDS011;2000;47.572;14.202;2024-01-30T09:39:13;17.20;;;1.50;;
3971;SDS011;2000;47.572;14.202;2024-01-30T09:41:44;1.37;;;1.00;;
3971;SDS011;2000;47.572;14.202;2024-01-30T09:44:13;11.73;;;1.20;;
3971;SDS011;2000;47.572;14.202;2024-01-30T09:46:42;2.37;;;1.43;;
3971;SDS011;2000;47.572;14.202;2024-01-30T09:49:11;2.00;;;0.80;;
3971;SDS011;2000;47.572;14.202;2024-01-30T09:51:38;1.93;;;1.27;;
3971;SDS011;2000;47.572;14.202;2024-01-30T09:54:07;3.37;;;1.07;;
3971;SDS011;2000;47.572;14.202;2024-01-30T09:56:35;5.40;;;1.87;;
3971;SDS011;2000;47.572;14.202;2024-01-30T09:59:02;8.10;;;2.43;;
3971;SDS011;2000;47.572;14.202;2024-01-30T10:01:29;9.83;;;1.43;;
3971;SDS011;2000;47.572;14.202;2024-01-30T10:03:56;2.00;;;1.07;;
3971;SDS011;2000;47.572;14.202;2024-01-30T10:06:24;2.50;;;1.27;;
3971;SDS011;2000;47.572;14.202;2024-01-30T10:08:51;1.80;;;1.27;;
3971;SDS011;2000;47.572;14.202;2024-01-30T10:11:18;2.10;;;1.37;;
3971;SDS011;2000;47.572;14.202;2024-01-30T10:13:45;3.20;;;1.47;;
3971;SDS011;2000;47.572;14.202;2024-01-30T10:16:15;2.53;;;1.03;;
3971;SDS011;2000;47.572;14.202;2024-01-30T10:18:43;3.20;;;1.07;;
3971;SDS011;2000;47.572;14.202;2024-01-30T10:21:10;3.47;;;0.87;;
3971;SDS011;2000;47.572;14.202;2024-01-30T10:23:38;3.40;;;1.43;;
3971;SDS011;2000;47.572;14.202;2024-01-30T10:26:06;2.80;;;2.30;;
3971;SDS011;2000;47.572;14.202;2024-01-30T10:28:34;5.63;;;1.70;;
3971;SDS011;2000;47.572;14.202;2024-01-30T10:31:01;2.67;;;1.80;;
3971;SDS011;2000;47.572;14.202;2024-01-30T10:33:33;2.10;;;1.03;;
3971;SDS011;2000;47.572;14.202;2024-01-30T10:36:01;2.43;;;0.73;;
3971;SDS011;2000;47.572;14.202;2024-01-30T10:38:30;1.57;;;1.03;;
3971;SDS011;2000;47.572;14.202;2024-01-30T10:40:59;6.17;;;1.00;;
3971;SDS011;2000;47.572;14.202;2024-01-30T10:43:32;8.13;;;0.73;;
3971;SDS011;2000;47.572;14.202;2024-01-30T10:46:26;1.07;;;0.77;;
3971;SDS011;2000;47.572;14.202;2024-01-30T10:48:51;1.23;;;0.97;;
3971;SDS011;2000;47.572;14.202;2024-01-30T10:51:27;1.00;;;0.50;;
3971;SDS011;2000;47.572;14.202;2024-01-30T10:53:55;0.90;;;0.53;;
3971;SDS011;2000;47.572;14.202;2024-01-30T10:56:24;0.63;;;0.63;;
3971;SDS011;2000;47.572;14.202;2024-01-30T10:58:52;1.70;;;0.70;;
3971;SDS011;2000;47.572;14.202;2024-01-30T11:01:20;0.80;;;0.53;;
3971;SDS011;2000;47.572;14.202;2024-01-30T11:03:53;0.50;;;0.50;;
3971;SDS011;2000;47.572;14.202;2024-01-30T11:06:24;0.77;;;0.77;;
3971;SDS011;2000;47.572;14.202;2024-01-30T11:09:04;0.93;;;0.83;;
3971;SDS011;2000;47.572;14.202;2024-01-30T11:11:55;2.00;;;0.83;;
3971;SDS011;2000;47.572;14.202;2024-01-30T11:14:30;2.60;;;1.00;;
3971;SDS011;2000;47.572;14.202;2024-01-30T11:16:57;1.70;;;0.50;;
3971;SDS011;2000;47.572;14.202;2024-01-30T11:19:26;1.23;;;1.13;;
3971;SDS011;2000;47.572;14.202;2024-01-30T11:21:54;1.73;;;1.10;;
3971;SDS011;2000;47.572;14.202;2024-01-30T11:24:21;0.50;;;0.30;;
3971;SDS011;2000;47.572;14.202;2024-01-30T11:26:49;2.53;;;0.50;;
3971;SDS011;2000;47.572;14.202;2024-01-30T11:29:17;1.27;;;0.77;;
3971;SDS011;2000;47.572;14.202;2024-01-30T11:31:51;2.30;;;0.60;;
3971;SDS011;2000;47.572;14.202;2024-01-30T11:34:20;0.77;;;0.77;;
3971;SDS011;2000;47.572;14.202;2024-01-30T11:36:48;1.80;;;1.30;;
3971;SDS011;2000;47.572;14.202;2024-01-30T11:39:21;3.17;;;1.47;;
3971;SDS011;2000;47.572;14.202;2024-01-30T11:41:50;5.60;;;0.73;;
3971;SDS011;2000;47.572;14.202;2024-01-30T11:44:20;3.17;;;1.00;;
3971;SDS011;2000;47.572;14.202;2024-01-30T11:46:48;1.60;;;1.20;;
3971;SDS011;2000;47.572;14.202;2024-01-30T11:49:15;2.00;;;1.17;;
3971;SDS011;2000;47.572;14.202;2024-01-30T11:51:47;1.67;;;1.17;;
3971;SDS011;2000;47.572;14.202;2024-01-30T11:54:16;3.63;;;1.27;;
3971;SDS011;2000;47.572;14.202;2024-01-30T11:56:43;1.63;;;0.67;;
3971;SDS011;2000;47.572;14.202;2024-01-30T11:59:10;1.20;;;1.10;;
3971;SDS011;2000;47.572;14.202;2024-01-30T12:01:37;1.30;;;1.20;;
3971;SDS011;2000;47.572;14.202;2024-01-30T12:04:07;1.70;;;1.07;;
3971;SDS011;2000;47.572;14.202;2024-01-30T12:06:38;2.73;;;1.73;;
3971;SDS011;2000;47.572;14.202;2024-01-30T12:09:05;7.20;;;1.37;;
3971;SDS011;2000;47.572;14.202;2024-01-30T12:11:45;2.47;;;1.40;;
3971;SDS011;2000;47.572;14.202;2024-01-30T12:14:16;6.07;;;1.97;;
3971;SDS011;2000;47.572;14.202;2024-01-30T12:16:47;3.43;;;1.20;;
3971;SDS011;2000;47.572;14.202;2024-01-30T12:19:24;3.53;;;1.27;;
3971;SDS011;2000;47.572;14.202;2024-01-30T12:21:59;6.40;;;1.33;;
3971;SDS011;2000;47.572;14.202;2024-01-30T12:24:27;1.80;;;1.50;;
3971;SDS011;2000;47.572;14.202;2024-01-30T12:26:57;2.73;;;1.40;;
3971;SDS011;2000;47.572;14.202;2024-01-30T12:29:25;4.73;;;1.30;;
3971;SDS011;2000;47.572;14.202;2024-01-30T12:31:57;7.17;;;1.83;;
3971;SDS011;2000;47.572;14.202;2024-01-30T12:34:24;2.90;;;1.40;;
3971;SDS011;2000;47.572;14.202;2024-01-30T12:36:52;3.93;;;1.30;;
3971;SDS011;2000;47.572;14.202;2024-01-30T12:39:20;4.50;;;1.40;;
3971;SDS011;2000;47.572;14.202;2024-01-30T12:41:48;3.70;;;1.80;;
3971;SDS011;2000;47.572;14.202;2024-01-30T12:44:16;6.77;;;1.60;;
3971;SDS011;2000;47.572;14.202;2024-01-30T12:46:43;2.70;;;1.70;;
3971;SDS011;2000;47.572;14.202;2024-01-30T12:49:12;13.33;;;1.40;;
3971;SDS011;2000;47.572;14.202;2024-01-30T12:51:39;11.60;;;1.90;;
3971;SDS011;2000;47.572;14.202;2024-01-30T12:54:06;6.30;;;1.57;;
3971;SDS011;2000;47.572;14.202;2024-01-30T12:56:33;3.73;;;1.53;;
3971;SDS011;2000;47.572;14.202;2024-01-30T12:59:00;8.10;;;1.70;;
3971;SDS011;2000;47.572;14.202;2024-01-30T13:01:27;2.90;;;2.00;;
3971;SDS011;2000;47.572;14.202;2024-01-30T13:03:55;3.43;;;1.37;;
3971;SDS011;2000;47.572;14.202;2024-01-30T13:06:24;2.20;;;1.33;;
3971;SDS011;2000;47.572;14.202;2024-01-30T13:08:51;2.93;;;1.47;;
3971;SDS011;2000;47.572;14.202;2024-01-30T13:11:18;3.67;;;2.07;;
3971;SDS011;2000;47.572;14.202;2024-01-30T13:13:47;4.57;;;1.70;;
3971;SDS011;2000;47.572;14.202;2024-01-30T13:16:14;5.97;;;2.37;;
3971;SDS011;2000;47.572;14.202;2024-01-30T13:18:42;6.40;;;2.73;;
3971;SDS011;2000;47.572;14.202;2024-01-30T13:21:09;5.10;;;2.10;;
3971;SDS011;2000;47.572;14.202;2024-01-30T13:23:36;8.43;;;1.83;;
3971;SDS011;2000;47.572;14.202;2024-01-30T13:26:03;1.90;;;1.30;;
3971;SDS011;2000;47.572;14.202;2024-01-30T13:28:30;6.03;;;1.97;;
3971;SDS011;2000;47.572;14.202;2024-01-30T13:30:57;3.60;;;1.50;;
3971;SDS011;2000;47.572;14.202;2024-01-30T13:33:25;4.50;;;2.13;;
3971;SDS011;2000;47.572;14.202;2024-01-30T13:35:53;3.33;;;1.50;;
3971;SDS011;2000;47.572;14.202;2024-01-30T13:38:20;4.33;;;1.50;;
3971;SDS011;2000;47.572;14.202;2024-01-30T13:40:47;6.63;;;1.43;;
3971;SDS011;2000;47.572;14.202;2024-01-30T13:43:14;7.60;;;1.60;;
3971;SDS011;2000;47.572;14.202;2024-01-30T13:45:41;8.20;;;1.70;;
3971;SDS011;2000;47.572;14.202;2024-01-30T13:48:09;3.10;;;1.77;;
3971;SDS011;2000;47.572;14.202;2024-01-30T13:50:36;2.13;;;1.50;;
3971;SDS011;2000;47.572;14.202;2024-01-30T13:53:03;8.03;;;2.43;;
3971;SDS011;2000;47.572;14.202;2024-01-30T13:55:31;5.90;;;2.27;;
3971;SDS011;2000;47.572;14.202;2024-01-30T13:57:58;4.47;;;2.33;;
3971;SDS011;2000;47.572;14.202;2024-01-30T14:00:25;6.80;;;2.87;;
3971;SDS011;2000;47.572;14.202;2024-01-30T14:02:52;15.27;;;2.03;;
3971;SDS011;2000;47.572;14.202;2024-01-30T14:05:24;4.40;;;2.23;;
3971;SDS011;2000;47.572;14.202;2024-01-30T14:07:52;2.10;;;1.50;;
3971;SDS011;2000;47.572;14.202;2024-01-30T14:10:19;7.27;;;1.80;;
3971;SDS011;2000;47.572;14.202;2024-01-30T14:12:46;2.20;;;1.40;;
3971;SDS011;2000;47.572;14.202;2024-01-30T14:15:16;2.87;;;1.77;;
3971;SDS011;2000;47.572;14.202;2024-01-30T14:17:54;11.80;;;5.17;;
3971;SDS011;2000;47.572;14.202;2024-01-30T14:20:22;9.87;;;4.27;;
3971;SDS011;2000;47.572;14.202;2024-01-30T14:22:49;8.13;;;3.33;;
3971;SDS011;2000;47.572;14.202;2024-01-30T14:25:16;8.70;;;2.10;;
3971;SDS011;2000;47.572;14.202;2024-01-30T14:27:44;3.73;;;2.00;;
3971;SDS011;2000;47.572;14.202;2024-01-30T14:30:11;6.47;;;1.30;;
3971;SDS011;2000;47.572;14.202;2024-01-30T14:32:38;6.80;;;1.50;;
3971;SDS011;2000;47.572;14.202;2024-01-30T14:35:07;1.20;;;1.07;;
3971;SDS011;2000;47.572;14.202;2024-01-30T14:37:35;3.47;;;1.23;;
3971;SDS011;2000;47.572;14.202;2024-01-30T14:40:04;3.90;;;1.30;;
3971;SDS011;2000;47.572;14.202;2024-01-30T14:42:34;3.03;;;1.60;;
3971;SDS011;2000;47.572;14.202;2024-01-30T14:45:06;7.90;;;1.30;;
3971;SDS011;2000;47.572;14.202;2024-01-30T14:47:33;9.93;;;1.03;;
3971;SDS011;2000;47.572;14.202;2024-01-30T14:50:03;3.13;;;0.90;;
3971;SDS011;2000;47.572;14.202;2024-01-30T14:52:34;3.87;;;1.37;;
3971;SDS011;2000;47.572;14.202;2024-01-30T14:55:02;3.80;;;1.40;;
3971;SDS011;2000;47.572;14.202;2024-01-30T14:57:30;12.73;;;2.10;;
3971;SDS011;2000;47.572;14.202;2024-01-30T14:59:57;8.33;;;1.40;;
3971;SDS011;2000;47.572;14.202;2024-01-30T15:02:25;6.43;;;1.77;;
3971;SDS011;2000;47.572;14.202;2024-01-30T15:04:52;6.73;;;0.83;;
3971;SDS011;2000;47.572;14.202;2024-01-30T15:07:19;2.27;;;1.30;;
3971;SDS011;2000;47.572;14.202;2024-01-30T15:09:58;1.40;;;0.80;;